Time;durP1;ratioP1;P1;durP2;ratioP2;P2;SDS_P1;SDS_P2;PMS_P1;PMS_P2;Temp;Humidity;BMP_temperature;BMP_pressure;BME280_temperature;BME280_humidity;BME280_pressure;Samples;Min_cycle;Max_cycle;Signal;HPM_P1;HPM_P2
2023/01/30 00:02:49;;;;;;;17.80;8.38;;;7.20;99.90;;;;;;10503094;28;20028;-66
2023/01/30 00:07:50;;;;;;;18.45;9.27;;;7.20;99.90;;;;;;10516076;28;20016;-65
2023/01/30 00:12:51;;;;;;;20.23;9.70;;;7.20;99.90;;;;;;10509856;28;20031;-66
2023/01/30 00:17:51;;;;;;;15.63;8.93;;;7.20;99.90;;;;;;10515506;28;20073;-66
2023/01/30 00:22:52;;;;;;;19.33;9.88;;;7.30;99.90;;;;;;10516324;28;20081;-66
2023/01/30 00:27:52;;;;;;;17.35;9.40;;;7.30;99.90;;;;;;10511470;28;20099;-66
2023/01/30 00:32:57;;;;;;;17.25;9.13;;;7.30;99.90;;;;;;10515278;28;20258;-65
2023/01/30 00:37:58;;;;;;;21.00;9.85;;;7.30;99.90;;;;;;10509509;28;20515;-65
2023/01/30 00:48:18;;;;;;;;;;;7.30;99.90;;;;;;10508843;28;20026;-65
2023/01/30 00:53:18;;;;;;;15.43;7.45;;;7.30;99.90;;;;;;10508810;28;20363;-66
2023/01/30 00:58:21;;;;;;;19.45;9.50;;;7.30;99.90;;;;;;10511500;28;20028;-65
2023/01/30 01:03:21;;;;;;;16.92;8.43;;;7.30;99.90;;;;;;10515335;28;20052;-66
2023/01/30 01:08:22;;;;;;;15.93;7.95;;;7.30;99.90;;;;;;10512109;28;20123;-66
2023/01/30 01:13:22;;;;;;;17.92;8.25;;;7.30;99.90;;;;;;10514765;28;20488;-65
2023/01/30 01:18:23;;;;;;;16.70;7.82;;;7.40;99.90;;;;;;10512481;28;20462;-66
2023/01/30 01:23:24;;;;;;;14.77;7.43;;;7.40;99.90;;;;;;10516285;28;20016;-67
2023/01/30 01:28:24;;;;;;;14.90;7.95;;;7.40;99.90;;;;;;10513269;28;20035;-66
2023/01/30 01:33:28;;;;;;;13.65;6.88;;;7.50;99.90;;;;;;10514720;28;20186;-66
2023/01/30 01:38:29;;;;;;;16.83;6.95;;;7.40;99.90;;;;;;10514930;28;20474;-66
2023/01/30 01:43:36;;;;;;;17.00;7.30;;;7.40;99.90;;;;;;10515835;28;20012;-65
2023/01/30 01:48:42;;;;;;;13.00;7.18;;;7.40;99.90;;;;;;10510553;28;20327;-66
2023/01/30 01:53:52;;;;;;;11.55;6.05;;;7.40;99.90;;;;;;10513371;28;20508;-66
2023/01/30 01:59:00;;;;;;;13.80;6.22;;;7.40;99.90;;;;;;10515159;28;20110;-66
2023/01/30 02:04:04;;;;;;;13.32;6.45;;;7.40;99.90;;;;;;10510259;28;20295;-67
2023/01/30 02:09:08;;;;;;;11.40;5.90;;;7.50;99.90;;;;;;10510297;28;20024;-66
2023/01/30 02:14:10;;;;;;;11.93;5.85;;;7.40;99.90;;;;;;10508484;28;20020;-66
2023/01/30 02:19:29;;;;;;;11.40;5.82;;;7.40;99.90;;;;;;10509512;28;20436;-66
2023/01/30 02:24:50;;;;;;;9.98;5.40;;;7.40;99.90;;;;;;10514103;28;20139;-66
2023/01/30 02:30:28;;;;;;;11.98;4.97;;;7.40;99.90;;;;;;10518863;28;20059;-66
2023/01/30 02:35:44;;;;;;;9.25;5.53;;;7.50;99.90;;;;;;10520217;28;20020;-66
2023/01/30 02:41:16;;;;;;;9.40;4.97;;;7.50;99.90;;;;;;10520049;28;20028;-66
2023/01/30 02:46:41;;;;;;;11.98;5.28;;;7.50;99.90;;;;;;10514248;28;20445;-66
2023/01/30 02:51:45;;;;;;;9.07;4.57;;;7.50;99.90;;;;;;10515698;28;20316;-65
2023/01/30 02:56:51;;;;;;;8.25;4.72;;;7.50;99.90;;;;;;10521689;28;20062;-66
2023/01/30 03:02:17;;;;;;;9.73;4.18;;;7.50;99.90;;;;;;10517269;28;20225;-66
2023/01/30 03:07:26;;;;;;;10.82;5.50;;;7.50;99.90;;;;;;10516472;28;20016;-66
2023/01/30 03:12:42;;;;;;;8.10;4.22;;;7.50;99.90;;;;;;10521351;28;20051;-66
2023/01/30 03:17:45;;;;;;;8.60;4.10;;;7.50;99.90;;;;;;10517800;28;20024;-65
2023/01/30 03:22:46;;;;;;;11.27;4.95;;;7.50;99.90;;;;;;10515922;28;20343;-66
2023/01/30 03:27:49;;;;;;;9.02;4.20;;;7.50;99.90;;;;;;10516469;28;20543;-66
2023/01/30 03:32:49;;;;;;;7.70;4.03;;;7.50;99.90;;;;;;10509643;28;20024;-65
2023/01/30 03:37:50;;;;;;;10.68;4.38;;;7.50;99.90;;;;;;10516495;28;20023;-66
2023/01/30 03:42:51;;;;;;;6.30;3.30;;;7.50;99.90;;;;;;10511638;28;20022;-65
2023/01/30 03:47:51;;;;;;;9.50;3.75;;;7.50;99.90;;;;;;10520628;28;20504;-66
2023/01/30 03:52:53;;;;;;;6.90;3.42;;;7.50;99.90;;;;;;10515378;28;20622;-65
2023/01/30 03:57:55;;;;;;;8.20;3.50;;;7.50;99.90;;;;;;10518873;28;20023;-65
2023/01/30 04:02:56;;;;;;;6.28;3.17;;;7.70;99.90;;;;;;10515781;28;20398;-65
2023/01/30 04:07:57;;;;;;;7.70;3.50;;;7.60;99.90;;;;;;10517140;28;20024;-66
2023/01/30 04:12:57;;;;;;;7.38;3.35;;;7.30;99.90;;;;;;10511145;28;20028;-66
2023/01/30 04:17:58;;;;;;;6.90;3.30;;;7.60;99.90;;;;;;10516236;28;20024;-66
2023/01/30 04:22:58;;;;;;;5.93;3.78;;;7.60;99.90;;;;;;10517709;28;20060;-65
2023/01/30 04:27:59;;;;;;;8.65;3.40;;;7.60;99.90;;;;;;10513813;28;20476;-66
2023/01/30 04:32:59;;;;;;;5.95;3.05;;;7.60;99.90;;;;;;10515525;28;20020;-66
2023/01/30 04:38:00;;;;;;;6.50;2.95;;;7.60;99.90;;;;;;10515342;28;20107;-65
2023/01/30 04:43:01;;;;;;;7.07;3.25;;;7.60;99.90;;;;;;10519932;28;20041;-66
2023/01/30 04:48:02;;;;;;;7.63;3.63;;;7.60;99.90;;;;;;10511794;28;20124;-66
2023/01/30 04:53:03;;;;;;;9.73;2.88;;;7.60;99.90;;;;;;10511465;28;20051;-66
2023/01/30 04:58:03;;;;;;;8.50;2.92;;;7.60;99.90;;;;;;10515690;28;20020;-65
2023/01/30 05:03:05;;;;;;;6.32;2.63;;;7.60;99.90;;;;;;10513457;28;20024;-67
2023/01/30 05:08:06;;;;;;;6.47;2.83;;;7.60;99.90;;;;;;10515343;28;20016;-65
2023/01/30 05:13:06;;;;;;;5.57;2.53;;;7.60;99.90;;;;;;10520385;28;20024;-66
2023/01/30 05:18:07;;;;;;;4.88;2.33;;;7.60;99.90;;;;;;10512511;28;20350;-66
2023/01/30 05:23:07;;;;;;;6.07;2.70;;;7.60;99.90;;;;;;10510532;28;20139;-67
2023/01/30 05:28:08;;;;;;;5.50;2.45;;;7.60;99.90;;;;;;10516306;28;20142;-67
2023/01/30 05:33:08;;;;;;;6.47;2.50;;;7.60;99.90;;;;;;10515482;28;20059;-66
2023/01/30 05:38:09;;;;;;;4.80;2.13;;;7.60;99.90;;;;;;10514103;28;20025;-66
2023/01/30 05:43:10;;;;;;;5.55;2.22;;;7.60;99.90;;;;;;10519197;28;20255;-66
2023/01/30 05:48:10;;;;;;;4.00;2.13;;;7.50;99.90;;;;;;10513828;28;20066;-65
2023/01/30 05:53:11;;;;;;;5.00;2.08;;;7.50;99.90;;;;;;10510500;28;20025;-66
2023/01/30 05:58:12;;;;;;;7.05;1.80;;;7.50;99.90;;;;;;10510188;28;20171;-67
2023/01/30 06:03:13;;;;;;;5.20;2.38;;;7.50;99.90;;;;;;10514334;28;20044;-67
2023/01/30 06:08:13;;;;;;;5.18;2.20;;;7.50;99.90;;;;;;10522168;28;20032;-66
2023/01/30 06:13:14;;;;;;;4.18;1.80;;;7.50;99.90;;;;;;10519329;28;20020;-66
2023/01/30 06:18:15;;;;;;;7.28;2.17;;;7.50;99.90;;;;;;10515616;28;20057;-66
2023/01/30 06:23:16;;;;;;;3.92;2.08;;;7.50;99.90;;;;;;10514234;28;20395;-66
2023/01/30 06:28:21;;;;;;;5.82;1.92;;;7.50;99.90;;;;;;10522238;28;20055;-66
2023/01/30 06:33:21;;;;;;;5.20;2.13;;;7.50;99.90;;;;;;10517912;28;20058;-67
2023/01/30 06:38:22;;;;;;;5.28;2.05;;;7.50;99.90;;;;;;10518841;28;20115;-65
2023/01/30 06:43:22;;;;;;;4.53;1.77;;;7.50;99.90;;;;;;10513611;28;20084;-66
2023/01/30 06:48:23;;;;;;;4.22;1.88;;;7.50;99.90;;;;;;10519354;28;20020;-66
2023/01/30 06:53:29;;;;;;;4.43;1.92;;;7.50;99.90;;;;;;10514836;28;20032;-65
2023/01/30 06:58:29;;;;;;;3.90;1.55;;;7.50;99.90;;;;;;10512713;28;20020;-66
2023/01/30 07:03:30;;;;;;;3.67;2.10;;;7.50;99.90;;;;;;10502995;28;20042;-65
2023/01/30 07:08:31;;;;;;;6.18;1.98;;;7.50;99.90;;;;;;10511848;28;20379;-67
2023/01/30 07:13:31;;;;;;;5.03;1.95;;;7.50;99.90;;;;;;10511247;28;20054;-66
2023/01/30 07:18:32;;;;;;;4.45;1.70;;;7.40;99.90;;;;;;10511361;28;20038;-66
2023/01/30 07:23:33;;;;;;;4.53;1.60;;;7.40;99.90;;;;;;10515485;28;20220;-66
2023/01/30 07:28:33;;;;;;;5.07;1.60;;;7.40;99.90;;;;;;10510532;28;20055;-66
2023/01/30 07:33:34;;;;;;;5.72;1.58;;;7.40;99.90;;;;;;10514817;28;20024;-67
2023/01/30 07:38:35;;;;;;;4.72;1.45;;;7.40;99.90;;;;;;10507029;28;20523;-66
2023/01/30 07:43:35;;;;;;;3.90;1.90;;;7.50;99.90;;;;;;10497683;28;20356;-67
2023/01/30 07:48:36;;;;;;;5.40;1.60;;;7.50;99.90;;;;;;10492263;28;20311;-67
2023/01/30 07:53:36;;;;;;;5.18;1.80;;;7.60;99.90;;;;;;10505823;28;20107;-68
2023/01/30 07:58:37;;;;;;;4.93;1.60;;;7.50;99.90;;;;;;10501391;28;20028;-67
2023/01/30 08:03:37;;;;;;;6.03;1.75;;;7.50;99.90;;;;;;10507072;28;20026;-67
2023/01/30 08:08:38;;;;;;;4.38;1.70;;;7.60;99.90;;;;;;10515073;28;20028;-67
2023/01/30 08:13:39;;;;;;;4.22;1.30;;;7.50;99.90;;;;;;10501288;28;20100;-68
2023/01/30 08:18:40;;;;;;;5.93;1.90;;;7.60;99.90;;;;;;10502527;28;20111;-67
2023/01/30 08:23:40;;;;;;;6.95;2.55;;;7.50;99.90;;;;;;10499070;28;20471;-68
2023/01/30 08:28:41;;;;;;;6.38;1.73;;;7.60;99.90;;;;;;10500915;28;20539;-68
2023/01/30 08:33:42;;;;;;;7.63;2.42;;;7.60;99.90;;;;;;10496474;28;20035;-66
2023/01/30 08:38:43;;;;;;;7.68;1.70;;;7.60;99.90;;;;;;10502470;28;20023;-67
2023/01/30 08:43:43;;;;;;;4.97;1.60;;;7.60;99.90;;;;;;10490184;28;20038;-67
2023/01/30 08:48:45;;;;;;;4.32;1.52;;;7.20;99.90;;;;;;10499374;28;20031;-65
2023/01/30 08:53:45;;;;;;;5.57;1.52;;;7.60;99.90;;;;;;10510902;28;20741;-67
2023/01/30 08:58:47;;;;;;;7.15;1.50;;;7.60;99.90;;;;;;10510649;28;20016;-67
2023/01/30 09:03:48;;;;;;;6.65;1.42;;;7.60;99.90;;;;;;10511745;28;20046;-66
2023/01/30 09:08:49;;;;;;;3.85;1.58;;;7.60;99.90;;;;;;10504654;28;20024;-65
2023/01/30 09:13:49;;;;;;;8.70;1.80;;;7.70;99.90;;;;;;10509343;28;20028;-66
2023/01/30 09:18:50;;;;;;;7.22;1.58;;;7.70;99.90;;;;;;10497291;28;20580;-66
2023/01/30 09:23:50;;;;;;;4.78;1.73;;;7.70;99.90;;;;;;10497071;28;20020;-66
2023/01/30 09:28:51;;;;;;;7.47;1.52;;;7.70;99.90;;;;;;10499453;28;20029;-66
2023/01/30 09:33:51;;;;;;;3.97;1.50;;;7.70;99.90;;;;;;10508849;28;20032;-66
2023/01/30 09:38:52;;;;;;;5.22;1.42;;;7.80;99.90;;;;;;10499456;28;20036;-66
2023/01/30 09:44:29;;;;;;;4.75;1.33;;;7.80;99.90;;;;;;10490520;28;20074;-66
2023/01/30 09:49:53;;;;;;;4.38;1.45;;;7.80;99.90;;;;;;10496305;28;20051;-66
2023/01/30 09:55:01;;;;;;;3.42;1.23;;;7.90;99.90;;;;;;10509708;28;20037;-67
2023/01/30 10:00:04;;;;;;;8.10;1.80;;;7.90;99.90;;;;;;10511278;28;20024;-67
2023/01/30 10:05:05;;;;;;;6.72;1.40;;;8.60;99.90;;;;;;10514589;28;20262;-67
2023/01/30 10:10:21;;;;;;;4.35;1.20;;;8.00;99.90;;;;;;10502669;28;20020;-67
2023/01/30 10:15:45;;;;;;;6.82;1.45;;;8.00;99.90;;;;;;10506757;28;20341;-67
2023/01/30 10:20:51;;;;;;;4.00;1.33;;;8.00;99.90;;;;;;10508121;28;20525;-65
2023/01/30 10:26:00;;;;;;;5.15;1.50;;;8.10;99.90;;;;;;10508954;28;20028;-66
2023/01/30 10:31:09;;;;;;;5.65;1.30;;;8.10;99.90;;;;;;10505729;28;20040;-65
2023/01/30 10:36:14;;;;;;;6.85;1.70;;;8.20;99.90;;;;;;10506575;28;20071;-66
2023/01/30 10:41:27;;;;;;;9.35;2.53;;;8.30;99.90;;;;;;10502985;28;20035;-67
2023/01/30 10:46:55;;;;;;;7.85;1.65;;;8.30;99.90;;;;;;10505505;28;20028;-66
2023/01/30 10:52:25;;;;;;;7.85;1.48;;;8.40;99.90;;;;;;10505226;28;20464;-66
2023/01/30 10:57:47;;;;;;;7.18;1.40;;;8.40;99.90;;;;;;10508066;28;20025;-67
2023/01/30 11:03:00;;;;;;;12.38;1.42;;;8.40;99.90;;;;;;10505623;28;20499;-66
2023/01/30 11:08:01;;;;;;;6.03;1.50;;;8.40;99.90;;;;;;10508270;28;20020;-68
2023/01/30 11:13:18;;;;;;;6.00;1.33;;;8.40;99.90;;;;;;10504945;28;20028;-66
2023/01/30 11:18:20;;;;;;;6.72;1.55;;;8.50;99.90;;;;;;10505525;28;20106;-67
2023/01/30 11:23:38;;;;;;;5.57;1.77;;;8.40;99.90;;;;;;10496709;28;20578;-66
2023/01/30 11:28:41;;;;;;;10.68;1.50;;;8.50;99.90;;;;;;10505818;28;20016;-67
2023/01/30 11:33:42;;;;;;;5.65;1.77;;;8.50;99.90;;;;;;10507369;28;20440;-66
2023/01/30 11:38:56;;;;;;;8.90;1.63;;;8.50;99.90;;;;;;10509021;28;20042;-68
2023/01/30 11:44:01;;;;;;;15.80;2.25;;;8.60;99.90;;;;;;10498297;28;20031;-65
2023/01/30 11:49:09;;;;;;;7.43;2.10;;;8.60;99.90;;;;;;10503151;28;20024;-65
2023/01/30 11:54:17;;;;;;;7.78;1.77;;;8.70;99.90;;;;;;10499753;28;20100;-67
2023/01/30 11:59:23;;;;;;;8.85;1.73;;;8.70;99.90;;;;;;10502666;28;20032;-66
2023/01/30 12:04:24;;;;;;;7.65;2.17;;;8.70;99.90;;;;;;10505246;28;20106;-65
2023/01/30 12:09:32;;;;;;;10.88;2.63;;;8.70;99.90;;;;;;10507505;28;20113;-66
2023/01/30 12:14:48;;;;;;;7.20;2.13;;;8.70;99.90;;;;;;10503619;28;20077;-66
2023/01/30 12:20:12;;;;;;;7.15;1.77;;;8.70;99.90;;;;;;10503838;28;20038;-66
2023/01/30 12:25:21;;;;;;;6.70;1.90;;;8.70;99.90;;;;;;10501108;28;20075;-66
2023/01/30 12:30:41;;;;;;;10.20;2.20;;;8.70;99.90;;;;;;10497510;28;20032;-66
2023/01/30 12:36:20;;;;;;;8.52;2.13;;;8.60;99.90;;;;;;10498964;28;20027;-66
2023/01/30 12:41:30;;;;;;;;;;;8.70;99.90;;;;;;10462743;28;20056;-66
2023/01/30 12:46:53;;;;;;;7.63;2.00;;;8.60;99.90;;;;;;10500555;28;19961;-64
2023/01/30 12:52:10;;;;;;;7.90;1.73;;;8.60;99.90;;;;;;10510448;28;20399;-65
2023/01/30 12:57:20;;;;;;;9.57;1.80;;;8.60;99.90;;;;;;10507379;28;20032;-66
2023/01/30 13:02:21;;;;;;;4.38;1.58;;;8.60;99.90;;;;;;10506611;28;20488;-66
2023/01/30 13:07:53;;;;;;;7.60;2.15;;;8.60;99.90;;;;;;10498318;28;20040;-66
2023/01/30 13:13:12;;;;;;;7.00;1.95;;;8.60;99.90;;;;;;10507045;28;20058;-67
2023/01/30 13:18:23;;;;;;;6.65;1.77;;;8.70;99.90;;;;;;10506008;28;20499;-66
2023/01/30 13:23:44;;;;;;;6.53;1.60;;;8.70;99.90;;;;;;10507742;28;20220;-66
2023/01/30 13:28:48;;;;;;;8.88;1.85;;;8.70;99.90;;;;;;10506417;28;20020;-66
2023/01/30 13:33:55;;;;;;;9.88;2.03;;;8.70;99.90;;;;;;10499414;28;20027;-69
2023/01/30 13:39:31;;;;;;;8.52;1.95;;;8.70;99.90;;;;;;10494942;28;20388;-67
2023/01/30 13:44:35;;;;;;;8.70;1.52;;;8.70;99.90;;;;;;10497097;28;20028;-69
2023/01/30 13:49:59;;;;;;;7.53;1.50;;;8.70;99.90;;;;;;10500656;28;20016;-68
2023/01/30 13:55:24;;;;;;;4.47;1.63;;;8.70;99.90;;;;;;10505304;28;20036;-68
2023/01/30 14:00:32;;;;;;;8.10;1.65;;;8.70;99.90;;;;;;10500505;28;20109;-67
2023/01/30 14:05:59;;;;;;;9.43;2.10;;;8.70;99.90;;;;;;10504148;28;20035;-67
2023/01/30 14:11:00;;;;;;;10.55;1.98;;;8.70;99.90;;;;;;10508851;28;20033;-68
2023/01/30 14:16:04;;;;;;;9.85;2.03;;;8.70;99.90;;;;;;10491489;28;20597;-67
2023/01/30 14:21:34;;;;;;;10.18;2.10;;;8.80;99.90;;;;;;10503166;28;20084;-68
2023/01/30 14:26:46;;;;;;;12.15;1.92;;;8.90;99.90;;;;;;10513388;28;20400;-66
2023/01/30 14:31:48;;;;;;;11.00;2.08;;;8.90;99.90;;;;;;10506433;28;20040;-67
2023/01/30 14:36:51;;;;;;;8.95;1.90;;;8.90;99.90;;;;;;10511040;28;20020;-66
2023/01/30 14:42:17;;;;;;;9.32;1.90;;;8.90;99.90;;;;;;10517560;28;20069;-66
2023/01/30 14:47:19;;;;;;;9.95;2.10;;;8.90;99.90;;;;;;10510257;28;20058;-66
2023/01/30 14:52:24;;;;;;;8.20;1.85;;;8.90;99.90;;;;;;10509789;28;20107;-66
2023/01/30 14:57:31;;;;;;;8.27;1.48;;;8.90;99.90;;;;;;10512802;28;20514;-65
2023/01/30 15:02:42;;;;;;;12.25;2.47;;;8.90;99.90;;;;;;10511138;28;20048;-67
2023/01/30 15:07:50;;;;;;;15.02;2.90;;;8.90;99.90;;;;;;10503470;28;20023;-67
2023/01/30 15:13:28;;;;;;;12.15;2.17;;;8.80;99.90;;;;;;10507584;28;20086;-67
2023/01/30 15:19:21;;;;;;;14.20;2.45;;;8.70;99.90;;;;;;10507348;28;20030;-66
2023/01/30 15:24:41;;;;;;;10.77;2.20;;;8.70;99.90;;;;;;10486383;28;20381;-65
2023/01/30 15:30:07;;;;;;;17.88;2.33;;;8.70;99.90;;;;;;10512444;28;20040;-67
2023/01/30 15:35:21;;;;;;;16.08;2.53;;;8.80;99.90;;;;;;10465873;22;20453;-67
2023/01/30 15:40:27;;;;;;;14.35;2.72;;;8.80;99.90;;;;;;10394819;28;20025;-67
2023/01/30 15:45:46;;;;;;;11.10;2.08;;;8.80;99.90;;;;;;10400352;28;20055;-67
2023/01/30 15:50:56;;;;;;;8.82;1.77;;;8.70;99.90;;;;;;10399058;28;20045;-67
2023/01/30 15:56:00;;;;;;;12.90;2.20;;;8.70;99.90;;;;;;10395723;28;20405;-67
2023/01/30 16:01:01;;;;;;;13.35;2.38;;;8.70;99.90;;;;;;10399356;28;20374;-67
2023/01/30 16:06:02;;;;;;;14.10;1.90;;;8.70;99.90;;;;;;10398192;28;20029;-67
2023/01/30 16:11:03;;;;;;;11.43;2.03;;;8.70;99.90;;;;;;10399122;28;20593;-67
2023/01/30 16:16:06;;;;;;;12.07;3.45;;;8.60;99.90;;;;;;10400947;28;20024;-69
2023/01/30 16:21:15;;;;;;;10.55;2.33;;;8.60;99.90;;;;;;10398875;28;20021;-67
2023/01/30 16:26:17;;;;;;;9.90;2.30;;;8.70;99.90;;;;;;10399158;28;20033;-67
2023/01/30 16:31:18;;;;;;;8.07;2.05;;;8.60;99.90;;;;;;10398217;28;20021;-67
2023/01/30 16:36:18;;;;;;;13.40;3.50;;;8.60;99.90;;;;;;10399133;28;20049;-70
2023/01/30 16:41:39;;;;;;;15.95;4.60;;;8.50;99.90;;;;;;10399460;28;20029;-71
2023/01/30 16:46:40;;;;;;;19.20;5.05;;;8.50;99.90;;;;;;10392679;28;20163;-70
2023/01/30 16:51:41;;;;;;;21.55;5.25;;;8.50;99.90;;;;;;10399699;28;20348;-71
2023/01/30 16:56:46;;;;;;;11.90;4.60;;;8.50;99.90;;;;;;10399752;28;20022;-69
2023/01/30 17:01:47;;;;;;;14.95;4.13;;;8.40;99.90;;;;;;10397865;28;20105;-68
2023/01/30 17:06:53;;;;;;;18.55;4.65;;;8.40;99.90;;;;;;10396346;28;20041;-68
2023/01/30 17:11:54;;;;;;;15.48;4.93;;;8.40;99.90;;;;;;10394413;28;20486;-67
2023/01/30 17:17:09;;;;;;;19.60;5.10;;;8.40;99.90;;;;;;10396135;28;20067;-68
2023/01/30 17:22:23;;;;;;;13.80;3.90;;;8.40;99.90;;;;;;10395798;28;20124;-68
2023/01/30 17:27:26;;;;;;;15.00;4.07;;;8.40;99.90;;;;;;10396704;28;20421;-68
2023/01/30 17:32:26;;;;;;;19.42;4.30;;;8.40;99.90;;;;;;10394092;28;20117;-68
2023/01/30 17:37:27;;;;;;;17.35;4.55;;;8.40;99.90;;;;;;10395996;28;20037;-67
2023/01/30 17:42:27;;;;;;;10.90;3.97;;;8.40;99.90;;;;;;10397243;28;20048;-67
2023/01/30 17:47:29;;;;;;;18.38;4.55;;;8.40;99.90;;;;;;10383195;28;20051;-68
2023/01/30 17:52:29;;;;;;;12.90;4.38;;;8.40;99.90;;;;;;10395384;28;20257;-68
2023/01/30 17:57:30;;;;;;;14.63;4.40;;;8.40;99.90;;;;;;10398251;28;20037;-68
2023/01/30 18:02:31;;;;;;;10.48;3.95;;;8.40;99.90;;;;;;10400445;28;20040;-68
2023/01/30 18:07:33;;;;;;;13.00;4.03;;;8.40;99.90;;;;;;10400217;28;20010;-68
2023/01/30 18:12:33;;;;;;;12.38;3.83;;;8.30;99.90;;;;;;10396195;28;20029;-70
2023/01/30 18:17:38;;;;;;;10.80;3.55;;;8.30;99.90;;;;;;10398396;28;20037;-70
2023/01/30 18:22:39;;;;;;;9.45;3.45;;;8.30;99.90;;;;;;10391966;28;20095;-70
2023/01/30 18:27:46;;;;;;;9.57;3.22;;;7.90;99.90;;;;;;10396686;28;20083;-70
2023/01/30 18:32:47;;;;;;;14.23;4.20;;;8.30;99.90;;;;;;10400692;28;20028;-69
2023/01/30 18:37:48;;;;;;;11.93;2.85;;;8.30;99.90;;;;;;10395827;28;20112;-69
2023/01/30 18:42:49;;;;;;;12.55;4.28;;;8.30;99.90;;;;;;10398549;28;20040;-69
2023/01/30 18:47:51;;;;;;;13.40;3.67;;;8.40;99.90;;;;;;10398346;28;20030;-69
2023/01/30 18:52:51;;;;;;;14.38;3.40;;;8.30;99.90;;;;;;10402217;28;20076;-69
2023/01/30 18:57:52;;;;;;;9.20;2.72;;;8.30;99.90;;;;;;10391827;28;20056;-69
2023/01/30 19:02:53;;;;;;;13.00;3.33;;;8.30;99.90;;;;;;10414625;28;20497;-69
2023/01/30 19:07:54;;;;;;;11.27;2.85;;;8.20;99.90;;;;;;10396971;28;20032;-69
2023/01/30 19:13:40;;;;;;;13.93;3.33;;;8.20;99.90;;;;;;10402551;28;20071;-69
2023/01/30 19:18:16;;;;;;;14.70;2.90;;;8.20;99.90;;;;;;10397407;22;20057;-69
2023/01/30 19:23:16;;;;;;;9.32;2.53;;;8.20;99.90;;;;;;10432256;28;20028;-70
2023/01/30 19:28:17;;;;;;;10.57;2.80;;;8.20;99.90;;;;;;10412636;28;20033;-69
2023/01/30 19:33:19;;;;;;;6.85;2.40;;;8.20;99.90;;;;;;10415806;28;20026;-69
2023/01/30 19:38:20;;;;;;;6.75;2.28;;;8.20;99.90;;;;;;10425092;28;20038;-69
2023/01/30 19:43:20;;;;;;;8.23;2.83;;;8.20;99.90;;;;;;10425604;28;20490;-69
2023/01/30 19:48:21;;;;;;;10.65;2.88;;;8.10;99.90;;;;;;10429688;28;20021;-69
2023/01/30 19:53:21;;;;;;;6.30;2.00;;;8.10;99.90;;;;;;10424814;28;20318;-69
2023/01/30 19:58:22;;;;;;;6.90;2.40;;;8.10;99.90;;;;;;10430060;28;20039;-69
2023/01/30 20:03:22;;;;;;;9.35;2.58;;;8.10;99.90;;;;;;10421231;28;20033;-69
2023/01/30 20:08:23;;;;;;;11.52;2.53;;;8.10;99.90;;;;;;10425424;28;20025;-69
2023/01/30 20:13:24;;;;;;;7.10;2.33;;;8.00;99.90;;;;;;10428897;28;20116;-70
2023/01/30 20:18:24;;;;;;;11.10;2.50;;;8.00;99.90;;;;;;10423909;28;20040;-73
2023/01/30 20:23:25;;;;;;;9.52;2.33;;;8.00;99.90;;;;;;10420186;28;20033;-68
2023/01/30 20:28:26;;;;;;;7.47;2.30;;;8.00;99.90;;;;;;10423844;28;20025;-68
2023/01/30 20:33:30;;;;;;;4.32;1.58;;;8.00;99.90;;;;;;10423634;22;20496;-67
2023/01/30 20:38:34;;;;;;;8.70;2.33;;;8.00;99.90;;;;;;10424009;28;20036;-68
2023/01/30 20:43:37;;;;;;;5.60;2.20;;;8.00;99.90;;;;;;10428907;28;20183;-67
2023/01/30 20:48:38;;;;;;;6.22;1.90;;;8.00;99.90;;;;;;10430962;28;20014;-67
2023/01/30 20:53:55;;;;;;;6.13;2.30;;;8.00;99.90;;;;;;10427433;28;20032;-67
2023/01/30 20:58:55;;;;;;;6.00;2.10;;;8.00;99.90;;;;;;10433754;28;20429;-68
2023/01/30 21:03:56;;;;;;;6.00;2.50;;;7.90;99.90;;;;;;10425144;28;20037;-67
2023/01/30 21:08:57;;;;;;;5.90;1.75;;;7.90;99.90;;;;;;10430588;28;20172;-68
2023/01/30 21:13:59;;;;;;;8.52;2.03;;;7.90;99.90;;;;;;10425325;28;20138;-67
2023/01/30 21:19:04;;;;;;;7.20;1.92;;;7.90;99.90;;;;;;10430657;28;20119;-69
2023/01/30 21:24:07;;;;;;;8.07;2.03;;;7.90;99.90;;;;;;10425062;28;20397;-70
2023/01/30 21:29:07;;;;;;;8.27;2.25;;;8.00;99.90;;;;;;10422192;28;20132;-70
2023/01/30 21:34:08;;;;;;;7.15;2.20;;;8.00;99.90;;;;;;10438218;28;20051;-70
2023/01/30 21:44:37;;;;;;;3.72;1.50;;;8.00;99.90;;;;;;10458095;28;20036;-70
2023/01/30 21:49:39;;;;;;;7.55;1.90;;;8.00;99.90;;;;;;10447213;28;20449;-70
2023/01/30 21:54:40;;;;;;;4.97;1.60;;;8.00;99.90;;;;;;10447799;28;20071;-69
2023/01/30 21:59:40;;;;;;;7.90;1.85;;;8.20;99.90;;;;;;10444795;28;20090;-70
2023/01/30 22:04:41;;;;;;;6.68;2.22;;;7.90;99.90;;;;;;10441634;28;20033;-67
2023/01/30 22:09:41;;;;;;;7.55;1.85;;;7.90;99.90;;;;;;10442754;28;20025;-67
2023/01/30 22:14:42;;;;;;;3.92;1.77;;;7.90;99.90;;;;;;10444424;28;20999;-69
2023/01/30 22:19:43;;;;;;;2.95;1.40;;;7.90;99.90;;;;;;10440500;28;20509;-69
2023/01/30 22:24:43;;;;;;;5.47;1.50;;;7.80;99.90;;;;;;10432488;28;20397;-70
2023/01/30 22:29:44;;;;;;;8.57;1.80;;;7.80;99.90;;;;;;10439327;28;20036;-67
2023/01/30 22:34:44;;;;;;;4.45;1.48;;;7.80;99.90;;;;;;10452992;28;20028;-69
2023/01/30 22:39:45;;;;;;;6.00;1.48;;;7.80;99.90;;;;;;10443786;28;20059;-69
2023/01/30 22:44:45;;;;;;;4.85;1.35;;;7.80;99.90;;;;;;10437291;28;20576;-67
2023/01/30 22:49:46;;;;;;;6.53;1.67;;;7.80;99.90;;;;;;10445186;28;20093;-69
2023/01/30 22:54:47;;;;;;;7.55;2.33;;;7.70;99.90;;;;;;10443473;28;20481;-69
2023/01/30 22:59:47;;;;;;;4.25;1.30;;;7.70;99.90;;;;;;10444373;28;20419;-69
2023/01/30 23:04:49;;;;;;;5.72;1.67;;;7.70;99.90;;;;;;10452295;28;20396;-69
2023/01/30 23:09:49;;;;;;;3.75;1.50;;;7.70;99.90;;;;;;10439638;28;20607;-69
2023/01/30 23:14:50;;;;;;;5.72;1.70;;;7.70;99.90;;;;;;10446308;28;20029;-69
2023/01/30 23:19:51;;;;;;;7.20;1.73;;;7.70;99.90;;;;;;10436501;28;20094;-69
2023/01/30 23:24:52;;;;;;;5.82;1.80;;;7.70;99.90;;;;;;10445149;28;20021;-69
2023/01/30 23:29:52;;;;;;;5.40;1.30;;;7.60;99.90;;;;;;10443554;28;20503;-68
2023/01/30 23:34:53;;;;;;;3.42;1.40;;;7.70;99.90;;;;;;10446520;28;20520;-69
2023/01/30 23:39:53;;;;;;;7.03;1.50;;;7.70;99.90;;;;;;10447220;28;20025;-66
2023/01/30 23:44:54;;;;;;;3.53;1.40;;;7.60;99.90;;;;;;10438324;28;20116;-69
2023/01/30 23:49:55;;;;;;;5.82;1.65;;;7.60;99.90;;;;;;10437341;28;20074;-69
2023/01/30 23:54:55;;;;;;;4.72;1.10;;;7.60;99.90;;;;;;10443075;28;20048;-69
2023/01/30 23:59:56;;;;;;;2.75;0.93;;;7.60;99.90;;;;;;10445520;28;20029;-69
